Caribe Navigator — V2PW6 — position and weather

sailwx.info

Track history (hours):
 
Tides and Currents Weather Stations Pressure Air Temp Water Temp Dewpoint Dewpoint Depression Visibility Wind Speed Wind Dir Waves Ship Positions

Caribe Navigator

Last reported at 2015-Mar-27 03:33 UTC. Time now 2015-Mar-28 22:19 UTC.
Position N 25°08' W 080°09'.

Length 100 m; draft 5.6 m.

Type: Cargo ship. MMSI: 305289000.

Date/timePositionNaut miles runAvg speedWind from/ knotsBaromVisibWave heightAir tempDewpointWater temp
2015-Mar-27 03:33N 25°08' W 080°09'1010.3
2015-Mar-27 02:33N 25°17' W 080°04'10 9.6
2015-Mar-27 01:33N 25°26' W 080°01'10 9.9
2015-Mar-27 00:33N 25°36' W 080°02'1010.3
2015-Mar-26 23:33N 25°47' W 080°02'1312.9
2015-Mar-26 22:33N 25°59' W 080°04'7 6.5
2015-Mar-26 21:32N 26°05' W 080°07'0 0.0
2015-Mar-26 20:32N 26°05' W 080°07'0 0.0
2015-Mar-26 19:32N 26°05' W 080°07'0 0.0
2015-Mar-26 18:32N 26°05' W 080°07'0 0.0
2015-Mar-26 17:23N 26°05' W 080°07'0 0.0
2015-Mar-26 16:23N 26°05' W 080°07'0 0.0
2015-Mar-26 15:26N 26°05' W 080°07'0 0.0
2015-Mar-26 14:26N 26°05' W 080°07'0 0.0
2015-Mar-26 13:26N 26°05' W 080°07'0 0.0
2015-Mar-26 12:26N 26°05' W 080°07'0 0.0
2015-Mar-26 11:26N 26°05' W 080°07'0 0.0
2015-Mar-26 10:26N 26°05' W 080°07'0 0.0
2015-Mar-26 09:29N 26°05' W 080°07'0 0.0
2015-Mar-26 08:29N 26°05' W 080°07'0 0.0
2015-Mar-26 07:29N 26°05' W 080°07'0 0.0
2015-Mar-26 06:29N 26°05' W 080°07'0 0.0
2015-Mar-26 05:29N 26°05' W 080°07'0 0.0
2015-Mar-26 04:32N 26°05' W 080°07'0 0.0
2015-Mar-26 03:32N 26°05' W 080°07'0 0.0
2015-Mar-26 02:32N 26°05' W 080°07'0 0.0
2015-Mar-26 01:32N 26°05' W 080°07'0 0.0
2015-Mar-26 00:32N 26°05' W 080°07'0 0.0
2015-Mar-25 23:32N 26°05' W 080°07'0 0.0
2015-Mar-25 22:32N 26°05' W 080°07'0 0.0
2015-Mar-25 21:32N 26°05' W 080°07'0 0.0
2015-Mar-25 20:32N 26°05' W 080°07'3 2.9
2015-Mar-25 19:33N 26°05' W 080°04'1515.2
2015-Mar-25 18:33N 25°52' W 079°55'6114.5
2015-Mar-25 14:20N 24°51' W 079°46'1214.9
2015-Mar-25 13:33N 24°40' W 079°50'  
2015-Mar-19 23:33N 25°35' W 080°01'1111.0
2015-Mar-19 22:33N 25°46' W 080°02'1110.7
2015-Mar-19 21:33N 25°56' W 080°04'9 9.4
2015-Mar-19 20:33N 26°06' W 080°05'2 1.7
2015-Mar-19 19:30N 26°05' W 080°07'0 0.0
2015-Mar-19 18:30N 26°05' W 080°07'0 0.0
2015-Mar-19 17:30N 26°05' W 080°07'0 0.0
2015-Mar-19 16:30N 26°05' W 080°07'0 0.0
2015-Mar-19 15:30N 26°05' W 080°07'0 0.0
2015-Mar-19 14:33N 26°05' W 080°07'0 0.0
2015-Mar-19 13:33N 26°05' W 080°07'0 0.0
2015-Mar-19 12:33N 26°05' W 080°07'0 0.0
2015-Mar-19 11:33N 26°05' W 080°07'0 0.0
2015-Mar-19 10:33N 26°05' W 080°07'0 0.0
2015-Mar-19 09:33N 26°05' W 080°07'0 0.0
2015-Mar-19 08:33N 26°05' W 080°07'0 0.3
2015-Mar-19 07:33N 26°06' W 080°07'0 0.3
2015-Mar-19 06:33N 26°05' W 080°07'0 0.0
2015-Mar-19 05:33N 26°05' W 080°07'0 0.0
2015-Mar-19 04:33N 26°05' W 080°07'0 0.0
2015-Mar-19 03:33N 26°05' W 080°07'0 0.0
2015-Mar-19 02:24N 26°05' W 080°07'0 0.0
2015-Mar-19 01:23N 26°05' W 080°07'0 0.0
2015-Mar-19 00:23N 26°05' W 080°07'0 0.0
2015-Mar-18 23:26N 26°05' W 080°07'0 0.0
2015-Mar-18 22:23N 26°05' W 080°07'0 0.0
2015-Mar-18 21:26N 26°05' W 080°07'0 0.0
2015-Mar-18 20:26N 26°05' W 080°07'0 0.0
2015-Mar-18 19:26N 26°05' W 080°07'0 0.0
2015-Mar-18 18:29N 26°05' W 080°07'0 0.0
2015-Mar-18 17:29N 26°05' W 080°07'0 0.0
2015-Mar-18 16:29N 26°05' W 080°07'0 0.0
2015-Mar-18 15:29N 26°05' W 080°07'0 0.0
2015-Mar-18 14:29N 26°05' W 080°07'0 0.0
2015-Mar-18 13:32N 26°05' W 080°07'0 0.0
2015-Mar-18 12:32N 26°05' W 080°07'0 0.0
2015-Mar-18 11:32N 26°05' W 080°07'0 0.0
2015-Mar-18 10:32N 26°05' W 080°07'0 0.0
2015-Mar-18 09:32N 26°05' W 080°07'0 0.0
2015-Mar-18 08:32N 26°05' W 080°07'0 0.0
2015-Mar-18 07:32N 26°05' W 080°07'0 0.0
2015-Mar-18 06:32N 26°05' W 080°07'0 0.0
2015-Mar-18 05:32N 26°05' W 080°07'0 0.0
2015-Mar-18 04:20N 26°05' W 080°07'0 0.0
2015-Mar-18 03:32N 26°05' W 080°07'0 0.0
2015-Mar-18 02:32N 26°05' W 080°07'0 0.0
2015-Mar-18 01:23N 26°05' W 080°07'0 0.0
2015-Mar-18 00:23N 26°05' W 080°07'0 0.0
2015-Mar-17 23:23N 26°05' W 080°07'0 0.0
2015-Mar-17 22:26N 26°05' W 080°07'0 0.0
2015-Mar-17 21:26N 26°05' W 080°07'0 0.0
2015-Mar-17 20:26N 26°05' W 080°07'0 0.0
2015-Mar-17 19:26N 26°05' W 080°07'0 0.0
2015-Mar-17 18:29N 26°05' W 080°07'0 0.0
2015-Mar-17 17:26N 26°05' W 080°07'0 0.0
2015-Mar-17 16:29N 26°05' W 080°07'0 0.0
2015-Mar-17 15:29N 26°05' W 080°07'0 0.0
2015-Mar-17 14:28N 26°05' W 080°07'4 3.8
2015-Mar-17 13:33N 26°04' W 080°04'6 5.7
2015-Mar-17 12:33N 25°59' W 080°01'9 8.8
2015-Mar-17 11:32N 25°51' W 079°56'  
Track history (hours):
 
Tides and Currents Weather Stations Pressure Air Temp Water Temp Dewpoint Dewpoint Depression Visibility Wind Speed Wind Dir Waves Ship Positions

Caribe Navigator

Last reported at 2015-Mar-27 03:33 UTC. Time now 2015-Mar-28 22:19 UTC.
Position N 25°08' W 080°09'.

Length 100 m; draft 5.6 m.

Type: Cargo ship. MMSI: 305289000.

Date/timePositionNaut miles runAvg speedWind from/ knotsBaromVisibWave heightAir tempDewpointWater temp
2015-Mar-27 03:33N 25°08' W 080°09'1010.3
2015-Mar-27 02:33N 25°17' W 080°04'10 9.6
2015-Mar-27 01:33N 25°26' W 080°01'10 9.9
2015-Mar-27 00:33N 25°36' W 080°02'1010.3
2015-Mar-26 23:33N 25°47' W 080°02'1312.9
2015-Mar-26 22:33N 25°59' W 080°04'7 6.5
2015-Mar-26 21:32N 26°05' W 080°07'0 0.0
2015-Mar-26 20:32N 26°05' W 080°07'0 0.0
2015-Mar-26 19:32N 26°05' W 080°07'0 0.0
2015-Mar-26 18:32N 26°05' W 080°07'0 0.0
2015-Mar-26 17:23N 26°05' W 080°07'0 0.0
2015-Mar-26 16:23N 26°05' W 080°07'0 0.0
2015-Mar-26 15:26N 26°05' W 080°07'0 0.0
2015-Mar-26 14:26N 26°05' W 080°07'0 0.0
2015-Mar-26 13:26N 26°05' W 080°07'0 0.0
2015-Mar-26 12:26N 26°05' W 080°07'0 0.0
2015-Mar-26 11:26N 26°05' W 080°07'0 0.0
2015-Mar-26 10:26N 26°05' W 080°07'0 0.0
2015-Mar-26 09:29N 26°05' W 080°07'0 0.0
2015-Mar-26 08:29N 26°05' W 080°07'0 0.0
2015-Mar-26 07:29N 26°05' W 080°07'0 0.0
2015-Mar-26 06:29N 26°05' W 080°07'0 0.0
2015-Mar-26 05:29N 26°05' W 080°07'0 0.0
2015-Mar-26 04:32N 26°05' W 080°07'0 0.0
2015-Mar-26 03:32N 26°05' W 080°07'0 0.0
2015-Mar-26 02:32N 26°05' W 080°07'0 0.0
2015-Mar-26 01:32N 26°05' W 080°07'0 0.0
2015-Mar-26 00:32N 26°05' W 080°07'0 0.0
2015-Mar-25 23:32N 26°05' W 080°07'0 0.0
2015-Mar-25 22:32N 26°05' W 080°07'0 0.0
2015-Mar-25 21:32N 26°05' W 080°07'0 0.0
2015-Mar-25 20:32N 26°05' W 080°07'3 2.9
2015-Mar-25 19:33N 26°05' W 080°04'1515.2
2015-Mar-25 18:33N 25°52' W 079°55'6114.5
2015-Mar-25 14:20N 24°51' W 079°46'1214.9
2015-Mar-25 13:33N 24°40' W 079°50'  
2015-Mar-19 23:33N 25°35' W 080°01'1111.0
2015-Mar-19 22:33N 25°46' W 080°02'1110.7
2015-Mar-19 21:33N 25°56' W 080°04'9 9.4
2015-Mar-19 20:33N 26°06' W 080°05'2 1.7
2015-Mar-19 19:30N 26°05' W 080°07'0 0.0
2015-Mar-19 18:30N 26°05' W 080°07'0 0.0
2015-Mar-19 17:30N 26°05' W 080°07'0 0.0
2015-Mar-19 16:30N 26°05' W 080°07'0 0.0
2015-Mar-19 15:30N 26°05' W 080°07'0 0.0
2015-Mar-19 14:33N 26°05' W 080°07'0 0.0
2015-Mar-19 13:33N 26°05' W 080°07'0 0.0
2015-Mar-19 12:33N 26°05' W 080°07'0 0.0
2015-Mar-19 11:33N 26°05' W 080°07'0 0.0
2015-Mar-19 10:33N 26°05' W 080°07'0 0.0
2015-Mar-19 09:33N 26°05' W 080°07'0 0.0
2015-Mar-19 08:33N 26°05' W 080°07'0 0.3
2015-Mar-19 07:33N 26°06' W 080°07'0 0.3
2015-Mar-19 06:33N 26°05' W 080°07'0 0.0
2015-Mar-19 05:33N 26°05' W 080°07'0 0.0
2015-Mar-19 04:33N 26°05' W 080°07'0 0.0
2015-Mar-19 03:33N 26°05' W 080°07'0 0.0
2015-Mar-19 02:24N 26°05' W 080°07'0 0.0
2015-Mar-19 01:23N 26°05' W 080°07'0 0.0
2015-Mar-19 00:23N 26°05' W 080°07'0 0.0
2015-Mar-18 23:26N 26°05' W 080°07'0 0.0
2015-Mar-18 22:23N 26°05' W 080°07'0 0.0
2015-Mar-18 21:26N 26°05' W 080°07'0 0.0
2015-Mar-18 20:26N 26°05' W 080°07'0 0.0
2015-Mar-18 19:26N 26°05' W 080°07'0 0.0
2015-Mar-18 18:29N 26°05' W 080°07'0 0.0
2015-Mar-18 17:29N 26°05' W 080°07'0 0.0
2015-Mar-18 16:29N 26°05' W 080°07'0 0.0
2015-Mar-18 15:29N 26°05' W 080°07'0 0.0
2015-Mar-18 14:29N 26°05' W 080°07'0 0.0
2015-Mar-18 13:32N 26°05' W 080°07'0 0.0
2015-Mar-18 12:32N 26°05' W 080°07'0 0.0
2015-Mar-18 11:32N 26°05' W 080°07'0 0.0
2015-Mar-18 10:32N 26°05' W 080°07'0 0.0
2015-Mar-18 09:32N 26°05' W 080°07'0 0.0
2015-Mar-18 08:32N 26°05' W 080°07'0 0.0
2015-Mar-18 07:32N 26°05' W 080°07'0 0.0
2015-Mar-18 06:32N 26°05' W 080°07'0 0.0
2015-Mar-18 05:32N 26°05' W 080°07'0 0.0
2015-Mar-18 04:20N 26°05' W 080°07'0 0.0
2015-Mar-18 03:32N 26°05' W 080°07'0 0.0
2015-Mar-18 02:32N 26°05' W 080°07'0 0.0
2015-Mar-18 01:23N 26°05' W 080°07'0 0.0
2015-Mar-18 00:23N 26°05' W 080°07'0 0.0
2015-Mar-17 23:23N 26°05' W 080°07'0 0.0
2015-Mar-17 22:26N 26°05' W 080°07'0 0.0
2015-Mar-17 21:26N 26°05' W 080°07'0 0.0
2015-Mar-17 20:26N 26°05' W 080°07'0 0.0
2015-Mar-17 19:26N 26°05' W 080°07'0 0.0
2015-Mar-17 18:29N 26°05' W 080°07'0 0.0
2015-Mar-17 17:26N 26°05' W 080°07'0 0.0
2015-Mar-17 16:29N 26°05' W 080°07'0 0.0
2015-Mar-17 15:29N 26°05' W 080°07'0 0.0
2015-Mar-17 14:28N 26°05' W 080°07'4 3.8
2015-Mar-17 13:33N 26°04' W 080°04'6 5.7
2015-Mar-17 12:33N 25°59' W 080°01'9 8.8
2015-Mar-17 11:32N 25°51' W 079°56'  

Dump ship's entire track history